Time;durP1;ratioP1;P1;durP2;ratioP2;P2;SDS_P1;SDS_P2;PMS_P1;PMS_P2;Temp;Humidity;BMP_temperature;BMP_pressure;BME280_temperature;BME280_humidity;BME280_pressure;Samples;Min_cycle;Max_cycle;Signal;HPM_P1;HPM_P2
2024/01/01 00:01:55;;;;;;;;;;;;;;;6.34;69.09;99788.75;5091880;28;19912;-83
2024/01/01 00:04:20;;;;;;;;;;;;;;;6.34;69.12;99788.75;5091961;28;19912;-82
2024/01/01 00:06:46;;;;;;;;;;;;;;;6.35;69.52;99788.63;5092981;28;19920;-82
2024/01/01 00:09:11;;;;;;;;;;;;;;;6.32;68.90;99786.28;5092954;28;19959;-81
2024/01/01 00:11:37;;;;;;;;;;;;;;;6.28;68.80;99784.94;5091655;28;19916;-82
2024/01/01 00:14:02;;;;;;;;;;;;;;;6.26;69.27;99788.66;5091522;28;19994;-82
2024/01/01 00:16:28;;;;;;;;;;;;;;;6.22;69.51;99782.06;5091510;28;19972;-82
2024/01/01 00:18:53;;;;;;;;;;;;;;;6.22;69.02;99788.13;5092833;28;20002;-82
2024/01/01 00:21:18;;;;;;;;;;;;;;;6.20;68.84;99787.44;5092768;28;19908;-81
2024/01/01 00:23:44;;;;;;;;;;;;;;;6.19;69.39;99785.78;5092203;28;19998;-82
2024/01/01 00:26:09;;;;;;;;;;;;;;;6.19;69.01;99783.19;5092653;28;19916;-81
2024/01/01 00:28:34;;;;;;;;;;;;;;;6.18;68.82;99778.91;5091489;28;20400;-83
2024/01/01 00:30:59;;;;;;;;;;;;;;;6.18;68.81;99773.66;5093060;28;19919;-81
2024/01/01 00:33:25;;;;;;;;;;;;;;;6.18;68.86;99773.66;5092592;28;19923;-84
2024/01/01 00:35:50;;;;;;;;;;;;;;;6.16;69.18;99772.16;5092702;28;19965;-81
2024/01/01 00:38:15;;;;;;;;;;;;;;;6.11;69.09;99775.19;5092510;28;20064;-83
2024/01/01 00:40:41;;;;;;;;;;;;;;;6.08;69.60;99778.09;5092487;28;19919;-81
2024/01/01 00:43:07;;;;;;;;;;;;;;;6.09;68.78;99774.53;5091140;28;19912;-81
2024/01/01 00:45:32;;;;;;;;;;;;;;;6.06;68.63;99772.19;5090965;28;19919;-81
2024/01/01 00:47:57;;;;;;;;;;;;;;;5.98;69.51;99765.03;5091067;28;19912;-81
2024/01/01 00:50:23;;;;;;;;;;;;;;;5.90;69.05;99767.53;5092375;28;19915;-82
2024/01/01 00:52:48;;;;;;;;;;;;;;;5.84;69.24;99772.47;5091046;28;20308;-81
2024/01/01 00:55:13;;;;;;;;;;;;;;;5.83;69.90;99768.19;5092395;28;19912;-82
2024/01/01 00:57:38;;;;;;;;;;;;;;;5.86;69.52;99775.78;5092467;28;20308;-81
2024/01/01 01:00:04;;;;;;;;;;;;;;;5.85;69.33;99768.88;5092249;28;19919;-81
2024/01/01 01:02:30;;;;;;;;;;;;;;;5.81;69.48;99765.72;5092174;28;19997;-81
2024/01/01 01:04:55;;;;;;;;;;;;;;;5.78;69.54;99759.94;5092288;28;19978;-81
2024/01/01 01:07:20;;;;;;;;;;;;;;;5.75;69.30;99754.00;5092142;28;19920;-82
2024/01/01 01:09:46;;;;;;;;;;;;;;;5.75;69.08;99756.63;5092261;28;19912;-82
2024/01/01 01:12:11;;;;;;;;;;;;;;;5.74;69.66;99747.13;5090681;28;20011;-83
2024/01/01 01:14:36;;;;;;;;;;;;;;;5.76;69.29;99749.59;5092604;28;19912;-83
2024/01/01 01:17:02;;;;;;;;;;;;;;;5.76;69.43;99749.59;5092061;28;19912;-81
2024/01/01 01:19:27;;;;;;;;;;;;;;;5.73;69.63;99745.47;5090911;28;19923;-81
2024/01/01 01:21:52;;;;;;;;;;;;;;;5.71;69.26;99750.03;5090870;28;20369;-81
2024/01/01 01:24:18;;;;;;;;;;;;;;;5.68;69.13;99737.22;5092093;28;19912;-82
2024/01/01 01:26:43;;;;;;;;;;;;;;;5.70;69.00;99739.69;5092212;28;19912;-81
2024/01/01 01:29:09;;;;;;;;;;;;;;;5.67;69.44;99743.41;5092016;28;19950;-82
2024/01/01 01:31:35;;;;;;;;;;;;;;;5.62;69.36;99729.94;5091961;28;19999;-81
2024/01/01 01:34:00;;;;;;;;;;;;;;;5.66;69.19;99733.09;5092066;28;19958;-82
2024/01/01 01:36:25;;;;;;;;;;;;;;;5.67;69.21;99726.88;5095913;28;20020;-82
2024/01/01 01:38:50;;;;;;;;;;;;;;;5.67;69.45;99729.50;5096234;28;19914;-82
2024/01/01 01:41:16;;;;;;;;;;;;;;;5.60;69.43;99729.25;5094764;28;19912;-82
2024/01/01 01:43:41;;;;;;;;;;;;;;;5.54;69.33;99721.13;5094834;28;20347;-81
2024/01/01 01:46:07;;;;;;;;;;;;;;;5.51;69.69;99719.63;5095861;28;19977;-81
2024/01/01 01:48:32;;;;;;;;;;;;;;;5.51;69.28;99717.00;5094664;28;19919;-81
2024/01/01 01:50:58;;;;;;;;;;;;;;;5.53;69.59;99714.22;5095772;28;19959;-81
2024/01/01 01:53:24;;;;;;;;;;;;;;;5.51;69.77;99710.94;5095687;28;19981;-81
2024/01/01 01:55:50;;;;;;;;;;;;;;;5.56;69.49;99713.94;5095544;28;19969;-81
2024/01/01 01:58:16;;;;;;;;;;;;;;;5.55;69.27;99713.13;5095728;28;19919;-81
2024/01/01 02:00:42;;;;;;;;;;;;;;;5.54;69.79;99711.47;5095747;28;19913;-81
2024/01/01 02:03:08;;;;;;;;;;;;;;;5.57;69.26;99705.94;5094286;28;19912;-81
2024/01/01 02:05:33;;;;;;;;;;;;;;;5.58;69.55;99704.97;5095412;28;19919;-81
2024/01/01 02:08:00;;;;;;;;;;;;;;;5.62;69.22;99703.72;5095342;28;19916;-81
2024/01/01 02:10:25;;;;;;;;;;;;;;;5.63;69.31;99697.53;5094035;28;20305;-82
2024/01/01 02:12:50;;;;;;;;;;;;;;;5.67;69.37;99706.75;5095207;28;19916;-81
2024/01/01 02:15:15;;;;;;;;;;;;;;;5.64;69.29;99714.88;5093929;28;20451;-81
2024/01/01 02:17:41;;;;;;;;;;;;;;;5.64;69.16;99707.03;5095524;28;19908;-81
2024/01/01 02:20:07;;;;;;;;;;;;;;;5.62;68.97;99705.53;5095311;28;19912;-82
2024/01/01 02:22:35;;;;;;;;;;;;;;;5.61;68.97;99711.72;5095527;28;19919;-81
2024/01/01 02:25:01;;;;;;;;;;;;;;;5.59;68.88;99706.63;5094340;28;19935;-82
2024/01/01 02:27:26;;;;;;;;;;;;;;;5.58;69.04;99693.69;5095129;28;20401;-82
2024/01/01 02:29:51;;;;;;;;;;;;;;;5.53;68.82;99699.34;5094115;28;19908;-81
2024/01/01 02:32:16;;;;;;;;;;;;;;;5.48;68.81;99701.56;5094804;28;20307;-82
2024/01/01 02:34:42;;;;;;;;;;;;;;;5.42;69.00;99699.50;5093419;28;19950;-82
2024/01/01 02:37:07;;;;;;;;;;;;;;;5.43;69.26;99695.94;5093858;28;19912;-81
2024/01/01 02:39:32;;;;;;;;;;;;;;;5.42;68.79;99694.28;5095489;28;19977;-82
2024/01/01 02:41:58;;;;;;;;;;;;;;;5.42;68.91;99696.91;5095171;28;19956;-82
2024/01/01 02:44:23;;;;;;;;;;;;;;;5.38;69.15;99695.53;5093663;28;19912;-82
2024/01/01 02:46:49;;;;;;;;;;;;;;;5.37;68.96;99701.72;5094638;28;20300;-82
2024/01/01 02:49:14;;;;;;;;;;;;;;;5.33;68.79;99706.41;5095520;28;19941;-81
2024/01/01 02:51:43;;;;;;;;;;;;;;;5.33;69.21;99702.97;5095132;28;19916;-82
2024/01/01 02:54:08;;;;;;;;;;;;;;;5.31;68.53;99700.50;5095407;28;20332;-81
2024/01/01 02:56:34;;;;;;;;;;;;;;;5.25;68.94;99700.25;5095286;28;19904;-81
2024/01/01 02:58:59;;;;;;;;;;;;;;;5.19;68.66;99695.53;5096161;28;19919;-81
2024/01/01 03:01:24;;;;;;;;;;;;;;;5.09;69.10;99696.38;5096451;28;19908;-81
2024/01/01 03:03:49;;;;;;;;;;;;;;;5.05;68.96;99687.13;5096409;28;19919;-81
2024/01/01 03:06:18;;;;;;;;;;;;;;;5.01;69.03;99696.25;5096009;28;20015;-81
2024/01/01 03:08:44;;;;;;;;;;;;;;;5.03;69.11;99698.72;5094437;28;19919;-81
2024/01/01 03:11:09;;;;;;;;;;;;;;;5.02;68.70;99702.28;5096356;28;19999;-81
2024/01/01 03:13:34;;;;;;;;;;;;;;;4.99;68.88;99687.69;5093965;28;19955;-81
2024/01/01 03:16:00;;;;;;;;;;;;;;;4.99;69.21;99692.09;5094105;28;19965;-81
2024/01/01 03:18:25;;;;;;;;;;;;;;;4.97;69.14;99687.00;5095459;28;20003;-81
2024/01/01 03:20:51;;;;;;;;;;;;;;;4.91;69.28;99679.72;5095254;28;19912;-81
2024/01/01 03:23:16;;;;;;;;;;;;;;;4.90;68.65;99675.44;5096647;28;19918;-81
2024/01/01 03:25:41;;;;;;;;;;;;;;;4.89;68.99;99681.66;5096873;28;19919;-81
2024/01/01 03:28:07;;;;;;;;;;;;;;;3.77;69.08;99533.94;5095291;28;19912;-81
2024/01/01 03:30:32;;;;;;;;;;;;;;;4.87;68.94;99680.97;5096801;28;20377;-81
2024/01/01 03:32:57;;;;;;;;;;;;;;;4.88;68.85;99677.38;5097199;28;19956;-81
2024/01/01 03:35:23;;;;;;;;;;;;;;;4.87;69.01;99674.91;5097269;28;19913;-81
2024/01/01 03:37:48;;;;;;;;;;;;;;;4.88;69.06;99680.00;5097951;28;19919;-81
2024/01/01 03:40:13;;;;;;;;;;;;;;;4.86;68.80;99671.47;5098307;28;19913;-81
2024/01/01 03:42:38;;;;;;;;;;;;;;;4.89;68.92;99672.97;5097935;28;19912;-81
2024/01/01 03:45:04;;;;;;;;;;;;;;;4.93;68.88;99676.97;5097456;28;19961;-81
2024/01/01 03:47:32;;;;;;;;;;;;;;;4.92;68.38;99672.69;5096177;28;19915;-81
2024/01/01 03:49:57;;;;;;;;;;;;;;;4.94;68.67;99681.22;5097460;28;19912;-81
2024/01/01 03:52:23;;;;;;;;;;;;;;;4.97;68.75;99681.78;5096815;28;19916;-81
2024/01/01 03:54:48;;;;;;;;;;;;;;;5.00;68.25;99671.03;5096908;28;19912;-81
2024/01/01 03:57:13;;;;;;;;;;;;;;;5.03;68.39;99665.53;5096723;28;19912;-81
2024/01/01 03:59:39;;;;;;;;;;;;;;;5.03;68.26;99673.38;5095180;28;20450;-81
2024/01/01 04:02:05;;;;;;;;;;;;;;;5.04;68.49;99666.34;5095268;28;19914;-81
2024/01/01 04:04:30;;;;;;;;;;;;;;;5.01;68.01;99661.41;5094210;28;19912;-81
2024/01/01 04:06:56;;;;;;;;;;;;;;;5.00;68.40;99664.97;5094564;28;19924;-81
2024/01/01 04:09:21;;;;;;;;;;;;;;;4.92;68.53;99668.28;5094467;28;20300;-81
2024/01/01 04:11:46;;;;;;;;;;;;;;;4.93;68.18;99669.13;5095363;28;19920;-81
2024/01/01 04:14:11;;;;;;;;;;;;;;;4.91;68.26;99674.50;5094793;28;20655;-81
2024/01/01 04:16:37;;;;;;;;;;;;;;;4.83;68.50;99666.50;5098043;28;19919;-78
2024/01/01 04:19:03;;;;;;;;;;;;;;;4.77;68.40;99661.81;5096398;28;20312;-80
2024/01/01 04:21:28;;;;;;;;;;;;;;;4.75;68.59;99661.97;5096126;28;20328;-81
2024/01/01 04:23:55;;;;;;;;;;;;;;;4.75;68.65;99666.38;5095983;28;19919;-81
2024/01/01 04:26:21;;;;;;;;;;;;;;;4.69;68.61;99665.13;5095193;28;19912;-81
2024/01/01 04:28:46;;;;;;;;;;;;;;;4.68;68.87;99667.88;5096300;28;20384;-81
2024/01/01 04:31:11;;;;;;;;;;;;;;;4.67;68.72;99663.63;5100339;28;20303;-81
2024/01/01 04:33:36;;;;;;;;;;;;;;;4.67;68.85;99664.44;5098229;28;19923;-81
2024/01/01 04:36:03;;;;;;;;;;;;;;;4.66;68.72;99667.19;5098521;28;19912;-81
2024/01/01 04:38:29;;;;;;;;;;;;;;;4.67;68.65;99669.66;5097848;28;20427;-81
2024/01/01 04:40:54;;;;;;;;;;;;;;;4.71;68.65;99665.00;5098668;28;19916;-81
2024/01/01 04:43:19;;;;;;;;;;;;;;;4.73;68.68;99663.06;5096348;28;19919;-81
2024/01/01 04:45:44;;;;;;;;;;;;;;;4.73;68.52;99665.69;5097036;28;19990;-81
2024/01/01 04:48:10;;;;;;;;;;;;;;;4.73;68.28;99658.66;5099046;28;19913;-81
2024/01/01 04:50:35;;;;;;;;;;;;;;;4.71;68.17;99662.38;5096518;28;20440;-81
2024/01/01 04:53:00;;;;;;;;;;;;;;;4.70;68.43;99666.78;5096475;28;19946;-81
2024/01/01 04:55:26;;;;;;;;;;;;;;;4.72;68.27;99669.25;5096818;28;19919;-81
2024/01/01 04:57:51;;;;;;;;;;;;;;;4.72;68.09;99656.19;5096499;28;20285;-81
2024/01/01 05:00:16;;;;;;;;;;;;;;;4.69;68.03;99661.69;5094869;28;20388;-81
2024/01/01 05:02:42;;;;;;;;;;;;;;;4.68;68.21;99660.88;5096471;28;19912;-81
2024/01/01 05:05:10;;;;;;;;;;;;;;;4.68;68.17;99658.25;5099427;28;19919;-81
2024/01/01 05:07:36;;;;;;;;;;;;;;;4.69;68.11;99662.53;5096275;28;19920;-81
2024/01/01 05:10:02;;;;;;;;;;;;;;;4.70;68.13;99663.34;5095592;28;19948;-81
2024/01/01 05:12:27;;;;;;;;;;;;;;;4.72;68.13;99650.94;5097165;28;20351;-80
2024/01/01 05:14:52;;;;;;;;;;;;;;;4.71;68.02;99647.50;5098000;28;19916;-81
2024/01/01 05:17:18;;;;;;;;;;;;;;;4.69;67.99;99649.44;5097633;28;19912;-81
2024/01/01 05:19:43;;;;;;;;;;;;;;;4.71;68.17;99651.91;5097300;28;19912;-81
2024/01/01 05:22:08;;;;;;;;;;;;;;;4.69;67.91;99653.84;5097167;28;20071;-81
2024/01/01 05:24:35;;;;;;;;;;;;;;;4.70;67.92;99658.94;5096332;28;19912;-81
2024/01/01 05:27:01;;;;;;;;;;;;;;;4.68;67.79;99657.41;5095216;28;19920;-81
2024/01/01 05:29:26;;;;;;;;;;;;;;;4.68;68.22;99654.81;5096081;28;19912;-81
2024/01/01 05:31:51;;;;;;;;;;;;;;;4.66;67.79;99661.97;5096707;28;19973;-81
2024/01/01 05:34:17;;;;;;;;;;;;;;;4.66;67.43;99661.97;5095154;28;19912;-80
2024/01/01 05:36:42;;;;;;;;;;;;;;;4.65;67.79;99666.38;5096654;28;19967;-81
2024/01/01 05:39:07;;;;;;;;;;;;;;;4.60;67.96;99665.13;5098893;28;19913;-81
2024/01/01 05:41:32;;;;;;;;;;;;;;;4.59;68.02;99669.53;5097506;28;19912;-81
2024/01/01 05:43:58;;;;;;;;;;;;;;;4.58;68.06;99662.66;5097104;28;19913;-81
2024/01/01 05:46:23;;;;;;;;;;;;;;;4.56;67.91;99671.59;5097649;28;19912;-80
2024/01/01 05:48:49;;;;;;;;;;;;;;;4.53;68.25;99664.03;5098038;28;19912;-81
2024/01/01 05:51:16;;;;;;;;;;;;;;;4.56;68.15;99661.13;5099306;28;19952;-81
2024/01/01 05:53:41;;;;;;;;;;;;;;;4.57;68.15;99665.41;5102374;28;19916;-81
2024/01/01 05:56:07;;;;;;;;;;;;;;;4.53;67.95;99658.78;5104817;28;20424;-81
2024/01/01 05:58:32;;;;;;;;;;;;;;;4.50;67.92;99661.69;5110296;28;20389;-81
2024/01/01 06:00:57;;;;;;;;;;;;;;;4.48;68.32;99672.28;5106034;28;19969;-81
2024/01/01 06:03:23;;;;;;;;;;;;;;;4.48;68.39;99667.06;5096293;28;19912;-81
2024/01/01 06:05:48;;;;;;;;;;;;;;;4.49;68.15;99667.88;5096779;28;19927;-81
2024/01/01 06:08:14;;;;;;;;;;;;;;;4.49;68.14;99673.94;5096130;28;19934;-81
2024/01/01 06:10:39;;;;;;;;;;;;;;;4.46;68.05;99667.19;5096152;28;20479;-81
2024/01/01 06:13:04;;;;;;;;;;;;;;;4.48;68.26;99669.66;5095097;28;19916;-81
2024/01/01 06:15:30;;;;;;;;;;;;;;;4.48;68.01;99661.81;5098840;28;19919;-81
2024/01/01 06:17:55;;;;;;;;;;;;;;;4.42;68.04;99664.94;5096166;28;20332;-80
2024/01/01 06:20:20;;;;;;;;;;;;;;;4.39;68.06;99668.66;5096014;28;19919;-81
2024/01/01 06:22:46;;;;;;;;;;;;;;;4.37;68.31;99667.13;5098628;28;19975;-81
2024/01/01 06:25:11;;;;;;;;;;;;;;;4.35;68.45;99664.66;5099263;28;19919;-80
2024/01/01 06:27:37;;;;;;;;;;;;;;;4.24;68.46;99670.00;5100236;28;20411;-81
2024/01/01 06:30:03;;;;;;;;;;;;;;;4.25;68.52;99673.44;5099890;28;19912;-81
2024/01/01 06:32:28;;;;;;;;;;;;;;;4.20;68.70;99676.47;5100438;28;19920;-81
2024/01/01 06:34:53;;;;;;;;;;;;;;;4.20;68.59;99670.41;5100601;28;19976;-81
2024/01/01 06:37:19;;;;;;;;;;;;;;;4.27;68.51;99672.34;5099206;28;19912;-81
2024/01/01 06:39:44;;;;;;;;;;;;;;;4.24;68.39;99662.16;5098736;28;20373;-81
2024/01/01 06:42:09;;;;;;;;;;;;;;;4.24;68.35;99662.16;5099784;28;19985;-81
2024/01/01 06:44:34;;;;;;;;;;;;;;;4.28;68.86;99655.72;5100166;28;19912;-81
2024/01/01 06:47:00;;;;;;;;;;;;;;;4.34;68.22;99656.97;5100034;28;19951;-81
2024/01/01 06:49:25;;;;;;;;;;;;;;;4.36;68.12;99655.84;5099015;28;20468;-81
2024/01/01 06:51:50;;;;;;;;;;;;;;;4.39;68.10;99652.16;5102549;28;19916;-81
2024/01/01 06:54:17;;;;;;;;;;;;;;;4.40;68.31;99654.63;5099787;28;19919;-81
2024/01/01 06:56:42;;;;;;;;;;;;;;;4.44;68.14;99649.94;5097928;28;20309;-81
2024/01/01 06:59:08;;;;;;;;;;;;;;;4.49;68.15;99652.19;5099804;28;19918;-81
2024/01/01 07:01:33;;;;;;;;;;;;;;;4.53;68.07;99643.94;5100822;28;19919;-81
2024/01/01 07:03:58;;;;;;;;;;;;;;;4.57;67.97;99647.09;5100482;28;19938;-81
2024/01/01 07:06:24;;;;;;;;;;;;;;;4.63;68.16;99651.78;5098483;28;19988;-81
2024/01/01 07:08:49;;;;;;;;;;;;;;;4.65;68.13;99652.47;5102008;28;19912;-81
2024/01/01 07:11:14;;;;;;;;;;;;;;;4.71;67.96;99649.31;5100589;28;19912;-81
2024/01/01 07:13:39;;;;;;;;;;;;;;;4.79;67.70;99636.34;5100277;28;19961;-81
2024/01/01 07:16:05;;;;;;;;;;;;;;;4.84;67.82;99636.75;5099676;28;19912;-81
2024/01/01 07:18:30;;;;;;;;;;;;;;;4.90;67.53;99645.84;5098590;28;19915;-81
2024/01/01 07:20:56;;;;;;;;;;;;;;;4.92;67.79;99639.50;5097760;28;19912;-80
2024/01/01 07:23:21;;;;;;;;;;;;;;;4.97;67.65;99634.69;5098549;28;19919;-81
2024/01/01 07:25:46;;;;;;;;;;;;;;;5.04;67.40;99637.56;5098533;28;19969;-81
2024/01/01 07:28:13;;;;;;;;;;;;;;;5.08;67.37;99639.75;5097740;28;20396;-81
2024/01/01 07:30:38;;;;;;;;;;;;;;;5.14;67.81;99641.00;5098312;28;19912;-81
2024/01/01 07:33:03;;;;;;;;;;;;;;;5.15;67.59;99633.97;5097907;28;19923;-81
2024/01/01 07:35:29;;;;;;;;;;;;;;;5.17;67.55;99637.25;5096555;28;19998;-81
2024/01/01 07:37:54;;;;;;;;;;;;;;;5.20;67.69;99634.38;5095194;28;20012;-81
2024/01/01 07:40:19;;;;;;;;;;;;;;;5.26;67.26;99631.22;5095546;28;19919;-81
2024/01/01 07:42:45;;;;;;;;;;;;;;;5.29;67.48;99630.94;5093755;28;19912;-81
2024/01/01 07:45:10;;;;;;;;;;;;;;;5.31;68.10;99639.47;5094700;28;19912;-81
2024/01/01 07:47:35;;;;;;;;;;;;;;;5.33;67.80;99640.97;5094891;28;19943;-82
2024/01/01 07:50:01;;;;;;;;;;;;;;;5.39;67.73;99642.19;5093345;28;19943;-81
2024/01/01 07:52:27;;;;;;;;;;;;;;;5.47;67.97;99644.94;5093937;28;19920;-82
2024/01/01 07:54:57;;;;;;;;;;;;;;;5.53;67.45;99644.34;5093715;28;20007;-81
2024/01/01 07:57:23;;;;;;;;;;;;;;;5.59;67.64;99641.16;5092130;28;20316;-81
2024/01/01 07:59:48;;;;;;;;;;;;;;;5.62;67.92;99646.09;5093558;28;19919;-82
2024/01/01 08:02:14;;;;;;;;;;;;;;;5.66;67.71;99652.72;5093366;28;20389;-82
2024/01/01 08:04:39;;;;;;;;;;;;;;;5.67;68.11;99650.91;5093412;28;20445;-81
2024/01/01 08:07:04;;;;;;;;;;;;;;;5.68;67.80;99645.53;5093056;28;19962;-81
2024/01/01 08:09:29;;;;;;;;;;;;;;;5.73;68.38;99648.53;5093153;28;19919;-82
2024/01/01 08:11:55;;;;;;;;;;;;;;;5.77;68.11;99641.22;5093070;28;20407;-81
2024/01/01 08:14:20;;;;;;;;;;;;;;;5.81;67.91;99637.34;5093145;28;20308;-82
2024/01/01 08:16:45;;;;;;;;;;;;;;;5.88;67.79;99630.53;5091731;28;19941;-82
2024/01/01 08:19:10;;;;;;;;;;;;;;;5.94;67.32;99632.63;5092940;28;20373;-81
2024/01/01 08:21:36;;;;;;;;;;;;;;;5.98;67.07;99638.41;5091615;28;19961;-81
2024/01/01 08:24:01;;;;;;;;;;;;;;;6.00;67.50;99633.84;5091321;28;19905;-82
2024/01/01 08:26:26;;;;;;;;;;;;;;;6.04;67.86;99643.06;5092675;28;19912;-82
2024/01/01 08:28:51;;;;;;;;;;;;;;;6.09;67.34;99637.41;5091730;28;19912;-80
2024/01/01 08:31:18;;;;;;;;;;;;;;;6.13;67.64;99625.63;5092875;28;19912;-83
2024/01/01 08:33:43;;;;;;;;;;;;;;;6.17;67.51;99633.06;5091522;28;19916;-81
2024/01/01 08:36:09;;;;;;;;;;;;;;;6.22;67.59;99622.13;5091413;28;19998;-81
2024/01/01 08:38:34;;;;;;;;;;;;;;;6.28;67.27;99614.50;5092698;28;19912;-81
2024/01/01 08:40:59;;;;;;;;;;;;;;;6.33;67.25;99614.06;5092938;28;19955;-81
2024/01/01 08:43:24;;;;;;;;;;;;;;;6.39;67.13;99602.97;5092497;28;19912;-81
2024/01/01 08:45:50;;;;;;;;;;;;;;;6.45;67.51;99598.91;5090523;28;19999;-82
2024/01/01 08:48:15;;;;;;;;;;;;;;;6.52;67.53;99597.34;5092442;28;19962;-82
2024/01/01 08:50:40;;;;;;;;;;;;;;;6.58;67.98;99583.63;5092341;28;19912;-82
2024/01/01 08:53:05;;;;;;;;;;;;;;;6.65;67.29;99579.41;5092286;28;19962;-82
2024/01/01 08:55:31;;;;;;;;;;;;;;;6.72;67.83;99582.28;5092081;28;20373;-82
2024/01/01 08:57:57;;;;;;;;;;;;;;;6.78;67.49;99572.00;5092249;28;19965;-84
2024/01/01 09:00:23;;;;;;;;;;;;;;;6.86;66.96;99573.84;5092281;28;19912;-83
2024/01/01 09:02:48;;;;;;;;;;;;;;;6.92;67.20;99570.63;5092320;28;19908;-82
2024/01/01 09:05:14;;;;;;;;;;;;;;;6.98;67.66;99567.38;5090851;28;19912;-82
2024/01/01 09:07:39;;;;;;;;;;;;;;;7.05;67.49;99570.22;5091906;28;20408;-81
2024/01/01 09:10:05;;;;;;;;;;;;;;;7.12;67.63;99563.34;5092196;28;19969;-82
2024/01/01 09:12:30;;;;;;;;;;;;;;;7.16;67.12;99557.63;5091763;28;20345;-82
2024/01/01 09:14:56;;;;;;;;;;;;;;;7.25;66.96;99556.69;5091796;28;20357;-82
2024/01/01 09:17:21;;;;;;;;;;;;;;;7.33;66.62;99545.41;5091903;28;19912;-82
2024/01/01 09:19:48;;;;;;;;;;;;;;;7.37;66.88;99541.50;5090697;28;19912;-84
2024/01/01 09:22:14;;;;;;;;;;;;;;;7.43;67.98;99537.41;5090649;28;19931;-84
2024/01/01 09:24:39;;;;;;;;;;;;;;;7.51;66.58;99535.66;5091831;28;20425;-81
2024/01/01 09:27:04;;;;;;;;;;;;;;;7.61;66.30;99536.38;5091738;28;19995;-82
2024/01/01 09:29:29;;;;;;;;;;;;;;;7.67;66.67;99521.75;5091543;28;19912;-82
2024/01/01 09:31:55;;;;;;;;;;;;;;;7.76;65.98;99528.69;5091639;28;19959;-84
2024/01/01 09:34:20;;;;;;;;;;;;;;;7.81;66.95;99529.03;5092108;28;19916;-82
2024/01/01 09:36:45;;;;;;;;;;;;;;;7.90;67.12;99532.50;5091570;28;20002;-84
2024/01/01 09:39:10;;;;;;;;;;;;;;;7.96;67.54;99523.97;5090290;28;19904;-83
2024/01/01 09:41:36;;;;;;;;;;;;;;;8.04;67.57;99520.53;5090260;28;19912;-82
2024/01/01 09:44:02;;;;;;;;;;;;;;;8.11;67.64;99513.63;5091711;28;19912;-82
2024/01/01 09:46:32;;;;;;;;;;;;;;;8.16;67.16;99512.16;5091610;28;19919;-84
2024/01/01 09:48:58;;;;;;;;;;;;;;;8.25;67.33;99498.06;5090447;28;19912;-83
2024/01/01 09:51:24;;;;;;;;;;;;;;;8.33;67.22;99496.41;5091706;28;19912;-84
2024/01/01 09:53:49;;;;;;;;;;;;;;;8.40;66.86;99485.09;5088831;28;19955;-82
2024/01/01 09:56:16;;;;;;;;;;;;;;;8.48;66.38;99479.81;5090779;28;19909;-84
2024/01/01 09:58:42;;;;;;;;;;;;;;;8.56;66.18;99473.72;5094704;28;19977;-82
2024/01/01 10:01:11;;;;;;;;;;;;;;;8.64;66.30;99473.72;5095527;28;20385;-82
2024/01/01 10:03:37;;;;;;;;;;;;;;;8.72;65.94;99473.69;5094098;28;19912;-82
2024/01/01 10:06:12;;;;;;;;;;;;;;;8.82;64.99;99468.25;5093854;28;19926;-83
2024/01/01 10:08:37;;;;;;;;;;;;;;;8.88;66.42;99473.66;5095208;28;19916;-81
2024/01/01 10:11:17;;;;;;;;;;;;;;;8.97;66.75;99471.84;5093664;28;19965;-83
2024/01/01 10:13:42;;;;;;;;;;;;;;;9.05;66.17;99465.75;5093853;28;19994;-83
2024/01/01 10:16:08;;;;;;;;;;;;;;;9.13;66.57;99463.06;5095351;28;19947;-82
2024/01/01 10:18:33;;;;;;;;;;;;;;;9.20;66.21;99459.59;5095152;28;20441;-81
2024/01/01 10:21:09;;;;;;;;;;;;;;;9.28;67.07;99453.47;5093772;28;20007;-82
2024/01/01 10:23:34;;;;;;;;;;;;;;;9.35;66.63;99440.41;5093625;28;20404;-82
2024/01/01 10:26:06;;;;;;;;;;;;;;;9.39;66.59;99444.34;5094790;28;19916;-81
2024/01/01 10:28:32;;;;;;;;;;;;;;;9.45;65.78;99448.94;5094748;28;19989;-82
2024/01/01 10:30:59;;;;;;;;;;;;;;;9.52;65.72;99448.06;5093424;28;19951;-82
2024/01/01 10:33:25;;;;;;;;;;;;;;;9.56;66.07;99449.34;5094769;28;19916;-83
2024/01/01 10:35:52;;;;;;;;;;;;;;;9.63;65.61;99432.84;5094850;28;19912;-83
2024/01/01 10:38:17;;;;;;;;;;;;;;;9.66;65.89;99440.41;5094828;28;20415;-82
2024/01/01 10:40:43;;;;;;;;;;;;;;;9.71;65.19;99427.53;5093583;28;19912;-83
2024/01/01 10:43:09;;;;;;;;;;;;;;;9.77;65.66;99430.31;5094914;28;19912;-82
2024/01/01 10:45:35;;;;;;;;;;;;;;;9.81;65.10;99438.69;5093270;28;19913;-82
2024/01/01 10:48:01;;;;;;;;;;;;;;;9.81;66.10;99434.22;5095053;28;19934;-81
2024/01/01 10:50:28;;;;;;;;;;;;;;;9.84;65.98;99425.97;5093068;28;19947;-83
2024/01/01 10:53:22;;;;;;;;;;;;;;;9.88;65.88;99429.88;5093002;28;19916;-82
2024/01/01 10:55:48;;;;;;;;;;;;;;;9.94;64.99;99431.00;5092993;28;20003;-81
2024/01/01 10:58:16;;;;;;;;;;;;;;;9.96;65.53;99430.81;5092819;28;19959;-82
2024/01/01 11:01:02;;;;;;;;;;;;;;;9.98;66.12;99434.09;5093300;28;20297;-82
2024/01/01 11:03:29;;;;;;;;;;;;;;;10.00;66.22;99425.03;5094258;28;19919;-82
2024/01/01 11:05:54;;;;;;;;;;;;;;;10.00;65.85;99427.66;5092863;28;19927;-83
2024/01/01 11:08:28;;;;;;;;;;;;;;;10.03;65.23;99414.13;5093566;28;20343;-82
2024/01/01 11:10:54;;;;;;;;;;;;;;;10.05;65.22;99411.28;5093911;28;19904;-82
2024/01/01 11:13:26;;;;;;;;;;;;;;;10.08;65.17;99411.75;5092653;28;19916;-82
2024/01/01 11:15:57;;;;;;;;;;;;;;;10.11;64.87;99414.03;5094085;28;19912;-82
2024/01/01 11:18:22;;;;;;;;;;;;;;;10.16;64.67;99411.69;5094019;28;20005;-82
2024/01/01 11:20:48;;;;;;;;;;;;;;;10.23;64.86;99403.91;5093997;28;19920;-81
2024/01/01 11:23:36;;;;;;;;;;;;;;;10.23;65.48;99400.44;5092614;28;19912;-81
2024/01/01 11:26:22;;;;;;;;;;;;;;;10.34;64.67;99402.66;5093898;28;20354;-81
2024/01/01 11:28:47;;;;;;;;;;;;;;;10.36;64.45;99390.91;5093589;28;19912;-82
2024/01/01 11:31:12;;;;;;;;;;;;;;;10.38;64.28;99394.19;5093492;28;20385;-82
2024/01/01 11:33:38;;;;;;;;;;;;;;;10.41;65.14;99383.31;5093531;28;19920;-81
2024/01/01 11:36:09;;;;;;;;;;;;;;;10.45;64.86;99381.94;5093502;28;19918;-82
2024/01/01 11:38:35;;;;;;;;;;;;;;;10.46;64.46;99385.41;5093764;28;19916;-82
2024/01/01 11:41:00;;;;;;;;;;;;;;;10.49;64.12;99385.03;5093902;28;19942;-82
2024/01/01 11:43:25;;;;;;;;;;;;;;;10.50;64.17;99376.94;5093494;28;19916;-81
2024/01/01 11:45:54;;;;;;;;;;;;;;;10.50;63.64;99374.31;5092228;28;19919;-81
2024/01/01 11:48:19;;;;;;;;;;;;;;;10.52;63.99;99373.31;5093470;28;19912;-82
2024/01/01 11:50:46;;;;;;;;;;;;;;;10.54;63.77;99374.75;5093500;28;19912;-82
2024/01/01 11:53:14;;;;;;;;;;;;;;;10.57;63.63;99376.22;5091906;28;19920;-81
2024/01/01 11:55:39;;;;;;;;;;;;;;;10.58;63.78;99373.41;5093154;28;19912;-81
2024/01/01 11:58:04;;;;;;;;;;;;;;;10.60;63.56;99376.66;5093190;28;19912;-82
2024/01/01 12:00:30;;;;;;;;;;;;;;;10.63;63.84;99373.66;5091700;28;20308;-81
2024/01/01 12:02:56;;;;;;;;;;;;;;;10.64;63.74;99371.84;5093043;28;19964;-82
2024/01/01 12:05:21;;;;;;;;;;;;;;;10.66;63.09;99375.13;5091671;28;19998;-82
2024/01/01 12:07:47;;;;;;;;;;;;;;;10.69;62.86;99380.03;5092821;28;19934;-83
2024/01/01 12:10:15;;;;;;;;;;;;;;;10.70;63.58;99371.94;5092715;28;19912;-82
2024/01/01 12:12:41;;;;;;;;;;;;;;;10.74;63.23;99372.38;5091384;28;19923;-81
2024/01/01 12:15:09;;;;;;;;;;;;;;;10.75;63.64;99359.00;5091480;28;19912;-82
2024/01/01 12:17:37;;;;;;;;;;;;;;;10.78;63.60;99363.09;5091463;28;19919;-83
2024/01/01 12:20:05;;;;;;;;;;;;;;;10.78;63.51;99363.91;5090099;28;21620;-82
2024/01/01 12:22:30;;;;;;;;;;;;;;;10.82;63.65;99359.91;5092673;28;19912;-81
2024/01/01 12:24:56;;;;;;;;;;;;;;;10.85;62.74;99358.72;5092563;28;19964;-81
2024/01/01 12:27:21;;;;;;;;;;;;;;;10.87;63.01;99353.25;5092573;28;20010;-81
2024/01/01 12:29:50;;;;;;;;;;;;;;;10.88;63.59;99353.06;5092549;28;19948;-82
2024/01/01 12:32:16;;;;;;;;;;;;;;;10.91;63.14;99360.63;5092395;28;19916;-82
2024/01/01 12:34:41;;;;;;;;;;;;;;;10.92;63.38;99361.44;5091420;28;19918;-81
2024/01/01 12:37:06;;;;;;;;;;;;;;;10.93;62.89;99361.25;5092444;28;20351;-82
2024/01/01 12:39:31;;;;;;;;;;;;;;;10.94;62.76;99357.59;5091522;28;19912;-82
2024/01/01 12:41:57;;;;;;;;;;;;;;;10.97;62.88;99354.59;5092502;28;19913;-82
2024/01/01 12:44:23;;;;;;;;;;;;;;;10.98;62.68;99347.50;5092176;28;19912;-81
2024/01/01 12:46:49;;;;;;;;;;;;;;;10.99;62.42;99334.09;5090870;28;19912;-82
2024/01/01 12:49:14;;;;;;;;;;;;;;;11.01;62.28;99326.81;5092169;28;19939;-83